createdAt,value
2019-01-30T00:01:01.895Z,81.70
2019-01-30T00:03:04.069Z,82.20
2019-01-30T00:05:06.946Z,81.60
2019-01-30T00:07:08.863Z,81.30
2019-01-30T00:09:10.998Z,81.00
2019-01-30T00:11:12.832Z,80.50
2019-01-30T00:13:14.670Z,81.70
2019-01-30T00:15:16.675Z,80.40
2019-01-30T00:17:18.494Z,81.50
2019-01-30T00:19:20.230Z,80.70
2019-01-30T00:21:22.058Z,80.90
2019-01-30T00:23:23.770Z,80.30
2019-01-30T00:25:25.863Z,80.70
2019-01-30T00:27:27.810Z,81.00
2019-01-30T00:29:29.526Z,81.70
2019-01-30T00:31:31.402Z,80.80
2019-01-30T00:33:33.114Z,80.50
2019-01-30T00:35:34.944Z,81.20
2019-01-30T00:37:37.171Z,81.50
2019-01-30T00:39:38.902Z,82.40
2019-01-30T00:41:40.962Z,82.30
2019-01-30T00:43:42.691Z,82.60
2019-01-30T00:45:44.544Z,82.70
2019-01-30T00:47:46.250Z,82.60
2019-01-30T00:49:48.112Z,83.00
2019-01-30T00:51:49.843Z,82.50
2019-01-30T00:53:51.542Z,82.00
2019-01-30T00:55:53.357Z,83.60
2019-01-30T00:57:55.081Z,82.10
2019-01-30T00:59:56.794Z,82.60
2019-01-30T01:01:58.626Z,83.40
2019-01-30T01:04:00.438Z,83.10
2019-01-30T01:06:02.378Z,83.20
2019-01-30T01:08:04.214Z,84.20
2019-01-30T01:10:07.932Z,82.90
2019-01-30T01:12:09.643Z,83.40
2019-01-30T01:14:11.371Z,83.80
2019-01-30T01:16:13.075Z,82.70
2019-01-30T01:18:14.858Z,83.20
2019-01-30T01:20:16.791Z,83.30
2019-01-30T01:22:18.606Z,83.50
2019-01-30T01:24:20.342Z,83.10
2019-01-30T01:26:22.154Z,83.00
2019-01-30T01:28:23.962Z,83.50
2019-01-30T01:30:26.599Z,82.80
2019-01-30T01:32:28.323Z,82.50
2019-01-30T01:34:30.047Z,82.40
2019-01-30T01:36:31.750Z,82.90
2019-01-30T01:38:33.450Z,83.90
2019-01-30T01:40:35.291Z,83.90
2019-01-30T01:42:37.218Z,84.50
2019-01-30T01:44:39.196Z,84.80
2019-01-30T01:46:41.004Z,85.20
2019-01-30T01:48:42.838Z,84.60
2019-01-30T01:50:44.659Z,85.00
2019-01-30T01:52:46.588Z,84.50
2019-01-30T01:54:48.619Z,85.10
2019-01-30T01:56:50.328Z,84.70
2019-01-30T01:58:52.039Z,84.30
2019-01-30T02:00:53.858Z,84.80
2019-01-30T02:02:55.597Z,85.70
2019-01-30T02:04:57.419Z,86.80
2019-01-30T02:07:00.025Z,86.30
2019-01-30T02:09:04.531Z,85.50
2019-01-30T02:11:06.343Z,85.30
2019-01-30T02:13:08.284Z,86.10
2019-01-30T02:15:12.155Z,86.30
2019-01-30T02:17:13.872Z,86.30
2019-01-30T02:19:16.031Z,86.10
2019-01-30T02:21:18.200Z,86.50
2019-01-30T02:23:19.910Z,86.60
2019-01-30T02:25:21.639Z,86.60
2019-01-30T02:27:23.366Z,87.40
2019-01-30T02:29:25.090Z,87.50
2019-01-30T02:31:26.861Z,87.60
2019-01-30T02:33:28.586Z,87.30
2019-01-30T02:35:30.391Z,87.10
2019-01-30T02:37:32.118Z,87.10
2019-01-30T02:39:34.402Z,87.30
2019-01-30T02:41:36.128Z,87.30
2019-01-30T02:43:37.838Z,88.70
2019-01-30T02:45:39.664Z,86.50
2019-01-30T02:47:41.608Z,87.40
2019-01-30T02:49:43.622Z,87.30
2019-01-30T02:51:45.494Z,86.80
2019-01-30T02:53:47.270Z,87.60
2019-01-30T02:55:48.985Z,87.20
2019-01-30T02:57:50.834Z,88.90
2019-01-30T02:59:52.550Z,87.90
2019-01-30T03:02:17.608Z,87.80
2019-01-30T03:04:19.433Z,88.20
2019-01-30T03:06:21.122Z,87.90
2019-01-30T03:08:22.837Z,88.20
2019-01-30T03:10:24.902Z,89.80
2019-01-30T03:12:26.715Z,90.10
2019-01-30T03:14:28.431Z,88.50
2019-01-30T03:16:30.308Z,89.60
2019-01-30T03:18:32.023Z,88.80
2019-01-30T03:20:34.631Z,90.20
2019-01-30T03:22:36.352Z,88.70
2019-01-30T03:24:38.063Z,89.50
2019-01-30T03:26:39.762Z,90.30
2019-01-30T03:28:41.650Z,91.40
2019-01-30T03:30:43.700Z,90.70
2019-01-30T03:32:45.603Z,90.10
2019-01-30T03:34:47.408Z,90.00
2019-01-30T03:36:49.097Z,90.10
2019-01-30T03:38:50.906Z,89.70
2019-01-30T03:40:52.723Z,90.80
2019-01-30T03:42:54.534Z,92.00
2019-01-30T03:44:56.246Z,90.60
2019-01-30T03:46:58.134Z,90.60
2019-01-30T03:49:00.130Z,88.10
2019-01-30T03:51:01.962Z,88.30
2019-01-30T03:53:03.867Z,88.00
2019-01-30T03:55:07.360Z,88.90
2019-01-30T03:57:09.171Z,88.90
2019-01-30T03:59:10.980Z,90.10
2019-01-30T04:01:12.791Z,89.50
2019-01-30T04:03:14.830Z,87.90
2019-01-30T04:05:16.643Z,88.10
2019-01-30T04:07:18.379Z,87.90
2019-01-30T04:09:20.213Z,89.60
2019-01-30T04:11:21.911Z,89.50
2019-01-30T04:13:23.614Z,89.30
2019-01-30T04:15:25.374Z,89.40
2019-01-30T04:17:27.215Z,88.60
2019-01-30T04:19:28.914Z,86.60
2019-01-30T04:21:30.658Z,87.70
2019-01-30T04:23:32.382Z,89.80
2019-01-30T04:25:34.102Z,89.20
2019-01-30T04:27:35.937Z,90.20
2019-01-30T04:29:37.699Z,88.80
2019-01-30T04:31:39.506Z,87.80
2019-01-30T04:33:41.222Z,88.50
2019-01-30T04:35:43.104Z,88.10
2019-01-30T04:37:44.923Z,89.30
2019-01-30T04:39:46.681Z,88.30
2019-01-30T04:41:48.566Z,88.00
2019-01-30T04:43:50.284Z,87.40
2019-01-30T04:45:52.140Z,87.80
2019-01-30T04:47:54.018Z,87.70
2019-01-30T04:49:55.759Z,87.80
2019-01-30T04:51:57.475Z,87.00
2019-01-30T04:53:59.648Z,87.60
2019-01-30T04:56:01.582Z,88.00
2019-01-30T04:58:03.491Z,86.90
2019-01-30T05:00:06.721Z,87.90
2019-01-30T05:02:08.434Z,89.00
2019-01-30T05:04:10.522Z,87.20
2019-01-30T05:06:12.236Z,87.10
2019-01-30T05:08:14.059Z,88.30
2019-01-30T05:10:15.978Z,87.50
2019-01-30T05:12:17.676Z,87.90
2019-01-30T05:14:19.403Z,87.50
2019-01-30T05:16:21.132Z,88.10
2019-01-30T05:18:23.167Z,87.80
2019-01-30T05:20:25.064Z,89.20
2019-01-30T05:22:26.800Z,89.00
2019-01-30T05:24:28.533Z,91.90
2019-01-30T05:26:30.262Z,89.30
2019-01-30T05:28:31.979Z,87.40
2019-01-30T05:30:34.007Z,87.90
2019-01-30T05:32:35.735Z,87.20
2019-01-30T05:34:37.457Z,87.30
2019-01-30T05:36:39.302Z,86.40
2019-01-30T05:38:41.010Z,87.10
2019-01-30T05:40:42.719Z,88.40
2019-01-30T05:42:44.442Z,88.60
2019-01-30T05:44:46.186Z,88.40
2019-01-30T05:46:47.898Z,88.30
2019-01-30T05:48:49.755Z,87.40
2019-01-30T05:50:51.516Z,89.10
2019-01-30T05:52:53.566Z,87.70
2019-01-30T05:54:55.328Z,86.40
2019-01-30T05:56:57.134Z,88.00
2019-01-30T05:58:58.859Z,88.40
2019-01-30T06:01:00.606Z,88.00
2019-01-30T06:03:02.526Z,87.90
2019-01-30T06:05:04.953Z,88.60
2019-01-30T06:07:06.949Z,88.30
2019-01-30T06:09:08.676Z,88.40
2019-01-30T06:11:12.210Z,90.10
2019-01-30T06:13:14.079Z,89.60
2019-01-30T06:15:16.138Z,89.00
2019-01-30T06:17:17.869Z,88.90
2019-01-30T06:19:19.700Z,90.10
2019-01-30T06:21:21.426Z,90.60
2019-01-30T06:23:23.158Z,91.70
2019-01-30T06:25:25.132Z,90.80
2019-01-30T06:27:26.871Z,91.40
2019-01-30T06:29:28.683Z,90.50
2019-01-30T06:31:30.506Z,91.80
2019-01-30T06:33:32.218Z,90.50
2019-01-30T06:35:34.026Z,90.50
2019-01-30T06:37:35.846Z,90.70
2019-01-30T06:39:37.554Z,89.80
2019-01-30T06:41:39.375Z,89.90
2019-01-30T06:43:41.419Z,88.60
2019-01-30T06:45:43.107Z,90.20
2019-01-30T06:47:45.021Z,91.50
2019-01-30T06:49:46.747Z,90.10
2019-01-30T06:51:48.485Z,90.80
2019-01-30T06:53:50.318Z,89.70
2019-01-30T06:55:52.085Z,88.80
2019-01-30T06:57:53.802Z,90.80
2019-01-30T06:59:55.810Z,90.90
2019-01-30T07:01:57.786Z,91.90
2019-01-30T07:03:59.502Z,91.50
2019-01-30T07:06:01.369Z,90.90
2019-01-30T07:08:03.271Z,91.40
2019-01-30T07:10:08.083Z,92.50
2019-01-30T07:12:09.801Z,91.40
2019-01-30T07:14:11.536Z,92.00
2019-01-30T07:16:13.234Z,91.50
2019-01-30T07:18:15.059Z,91.30
2019-01-30T07:20:16.996Z,91.80
2019-01-30T07:22:18.926Z,92.80
2019-01-30T07:24:20.741Z,90.60
2019-01-30T07:26:22.441Z,92.90
2019-01-30T07:28:24.182Z,91.10
2019-01-30T07:30:36.337Z,91.30
2019-01-30T07:32:42.346Z,92.00
2019-01-30T07:34:41.766Z,91.90
2019-01-30T07:36:43.470Z,91.20
2019-01-30T07:38:45.166Z,91.10
2019-01-30T07:40:47.242Z,92.10
2019-01-30T07:42:49.397Z,92.60
2019-01-30T07:44:51.287Z,92.50
2019-01-30T07:46:53.018Z,92.30
2019-01-30T07:48:54.727Z,93.10
2019-01-30T07:50:56.475Z,94.20
2019-01-30T07:52:58.955Z,95.20
2019-01-30T07:55:00.898Z,94.30
2019-01-30T07:57:02.775Z,95.50
2019-01-30T07:59:04.725Z,95.00
2019-01-30T08:01:06.526Z,94.60
2019-01-30T08:03:08.283Z,93.50
2019-01-30T08:05:10.241Z,93.80
2019-01-30T08:07:12.208Z,94.60
2019-01-30T08:09:14.080Z,94.70
2019-01-30T08:11:15.910Z,94.70
2019-01-30T08:13:17.730Z,96.10
2019-01-30T08:15:19.929Z,94.50
2019-01-30T08:17:22.027Z,94.60
2019-01-30T08:19:23.735Z,95.90
2019-01-30T08:24:15.562Z,94.30
2019-01-30T08:26:17.609Z,95.00
2019-01-30T08:28:20.080Z,95.50
2019-01-30T08:30:24.814Z,94.80
2019-01-30T08:32:27.202Z,95.60
2019-01-30T08:34:29.120Z,96.60
2019-01-30T08:36:30.860Z,97.60
2019-01-30T08:38:32.593Z,97.10
2019-01-30T08:40:34.307Z,97.30
2019-01-30T08:42:36.137Z,98.00
2019-01-30T08:44:46.923Z,97.60
2019-01-30T08:46:41.562Z,97.90
2019-01-30T08:48:43.310Z,95.80
2019-01-30T08:50:45.048Z,96.80
2019-01-30T08:52:46.871Z,97.30
2019-01-30T08:54:49.848Z,97.00
2019-01-30T08:56:53.080Z,98.30
2019-01-30T08:58:55.302Z,98.30
2019-01-30T09:00:57.026Z,98.30
2019-01-30T09:02:58.854Z,98.30
2019-01-30T10:11:39.291Z,98.30
2019-01-30T10:13:41.138Z,98.30
2019-01-30T10:15:43.460Z,98.30
2019-01-30T10:17:45.290Z,98.30
2019-01-30T10:19:47.000Z,98.30
2019-01-30T10:21:48.846Z,98.30
2019-01-30T10:23:50.898Z,98.30
2019-01-30T10:25:52.819Z,98.30
2019-01-30T10:27:54.574Z,98.30
2019-01-30T10:29:58.666Z,98.30
2019-01-30T10:31:59.913Z,98.30
2019-01-30T10:34:01.634Z,98.30
2019-01-30T10:36:03.934Z,98.30
2019-01-30T10:38:05.871Z,98.30
2019-01-30T10:40:10.428Z,98.30
2019-01-30T10:42:12.335Z,98.30
2019-01-30T10:44:14.043Z,98.30
2019-01-30T10:46:16.071Z,98.30
2019-01-30T10:48:17.927Z,98.30
2019-01-30T10:50:21.930Z,98.30
2019-01-30T10:52:23.854Z,98.30
2019-01-30T10:54:25.607Z,98.30
2019-01-30T10:56:27.416Z,98.30
2019-01-30T10:58:29.566Z,98.30
2019-01-30T11:00:34.704Z,98.30
2019-01-30T11:02:36.643Z,98.30
2019-01-30T11:04:38.402Z,98.30
2019-01-30T11:06:40.221Z,98.30
2019-01-30T11:08:41.943Z,98.30
2019-01-30T11:10:44.135Z,98.30
2019-01-30T11:12:46.150Z,98.30
2019-01-30T11:14:48.002Z,98.30
2019-01-30T11:16:49.714Z,98.30
2019-01-30T11:18:51.562Z,98.30
2019-01-30T11:20:53.412Z,98.30
2019-01-30T11:22:55.599Z,98.30
2019-01-30T11:24:57.616Z,98.30
2019-01-30T11:26:59.762Z,98.30
2019-01-30T11:29:01.754Z,98.30
2019-01-30T11:31:03.688Z,98.30
2019-01-30T11:33:05.689Z,98.30
2019-01-30T11:35:07.943Z,98.30
2019-01-30T11:37:09.913Z,98.30
2019-01-30T11:39:12.104Z,98.30
2019-01-30T11:41:14.573Z,98.30
2019-01-30T11:43:16.696Z,98.30
2019-01-30T11:45:35.544Z,98.30
2019-01-30T11:47:37.551Z,98.30
2019-01-30T11:49:39.369Z,98.30
2019-01-30T11:51:42.019Z,98.30
2019-01-30T11:53:44.527Z,98.30
2019-01-30T11:55:47.480Z,98.30
2019-01-30T11:57:50.071Z,98.30
2019-01-30T11:59:52.105Z,98.30
2019-01-30T12:01:54.204Z,98.30
2019-01-30T12:03:56.184Z,98.30
2019-01-30T12:05:58.270Z,98.30
2019-01-30T12:08:00.276Z,98.30
2019-01-30T12:10:02.915Z,98.30
2019-01-30T12:12:07.000Z,98.30
2019-01-30T12:14:09.641Z,98.30
2019-01-30T12:16:12.111Z,98.30
2019-01-30T12:18:14.620Z,98.30
2019-01-30T12:20:16.789Z,98.30
2019-01-30T12:22:18.978Z,98.30
2019-01-30T12:24:21.241Z,98.30
2019-01-30T12:26:23.485Z,98.30
2019-01-30T12:28:25.647Z,98.30
2019-01-30T12:30:27.574Z,98.30
2019-01-30T12:32:29.922Z,98.30
2019-01-30T12:34:31.632Z,98.30
2019-01-30T12:36:33.353Z,98.30
2019-01-30T12:38:35.446Z,98.30
2019-01-30T12:40:37.362Z,98.30
2019-01-30T12:43:11.095Z,98.30
2019-01-30T12:45:27.742Z,98.30
2019-01-30T12:47:29.475Z,98.30
2019-01-30T12:49:31.183Z,98.30
2019-01-30T12:51:33.269Z,98.30
2019-01-30T12:53:35.094Z,98.30
2019-01-30T12:55:37.003Z,98.30
2019-01-30T12:57:39.193Z,98.30
2019-01-30T12:59:41.036Z,98.30
2019-01-30T13:01:42.864Z,98.30
2019-01-30T13:03:44.586Z,98.30
2019-01-30T13:05:46.774Z,98.30
2019-01-30T13:07:48.762Z,98.30
2019-01-30T13:09:50.472Z,98.30
2019-01-30T13:11:52.608Z,98.30
2019-01-30T13:13:54.326Z,98.30
2019-01-30T13:15:56.047Z,98.30
2019-01-30T13:17:57.915Z,98.30
2019-01-30T13:19:59.626Z,98.30
2019-01-30T13:22:01.410Z,98.30
2019-01-30T13:24:05.187Z,98.30
2019-01-30T13:26:07.169Z,98.30
2019-01-30T13:28:09.186Z,98.30
2019-01-30T13:30:14.527Z,98.30
2019-01-30T13:32:16.520Z,98.30
2019-01-30T13:34:18.230Z,98.30
2019-01-30T13:36:20.067Z,98.20
2019-01-30T13:38:21.935Z,98.20
2019-01-30T13:40:26.849Z,98.00
2019-01-30T13:42:28.650Z,97.90
2019-01-30T13:44:30.498Z,96.80
2019-01-30T13:46:32.524Z,96.30
2019-01-30T13:48:34.380Z,96.40
2019-01-30T13:50:36.084Z,96.00
2019-01-30T13:52:37.834Z,96.30
2019-01-30T13:54:39.804Z,96.50
2019-01-30T13:56:41.538Z,97.30
2019-01-30T13:58:43.364Z,96.70
2019-01-30T14:00:45.216Z,97.50
2019-01-30T14:02:46.915Z,97.60
2019-01-30T14:04:59.095Z,97.90
2019-01-30T14:06:52.451Z,97.90
2019-01-30T14:08:54.587Z,97.90
2019-01-30T14:10:56.394Z,98.10
2019-01-30T14:12:58.318Z,98.20
2019-01-30T14:15:00.042Z,98.10
2019-01-30T14:17:01.798Z,98.10
2019-01-30T14:19:04.155Z,97.90
2019-01-30T14:21:06.150Z,98.30
2019-01-30T14:23:07.897Z,98.10
2019-01-30T14:25:13.155Z,98.30
2019-01-30T14:27:14.898Z,98.30
2019-01-30T14:29:16.874Z,98.30
2019-01-30T14:31:19.461Z,98.30
2019-01-30T14:33:21.334Z,98.30
2019-01-30T14:35:24.837Z,98.30
2019-01-30T14:37:27.051Z,98.30
2019-01-30T14:39:28.901Z,98.30
2019-01-30T14:41:30.594Z,98.30
2019-01-30T14:43:32.486Z,98.30
2019-01-30T14:45:34.415Z,98.30
2019-01-30T14:47:36.353Z,98.30
2019-01-30T14:49:38.833Z,98.30
2019-01-30T14:51:40.638Z,98.30
2019-01-30T14:53:42.372Z,97.80
2019-01-30T14:55:44.205Z,98.00
2019-01-30T14:57:46.662Z,97.60
2019-01-30T14:59:48.864Z,98.00
2019-01-30T15:01:50.802Z,98.20
2019-01-30T15:03:52.535Z,98.30
2019-01-30T15:05:54.535Z,97.00
2019-01-30T15:07:59.283Z,96.80
2019-01-30T15:10:01.155Z,97.30
2019-01-30T15:12:03.394Z,97.50
2019-01-30T15:14:05.249Z,97.70
2019-01-30T15:16:07.272Z,97.80
2019-01-30T15:18:09.391Z,98.00
2019-01-30T15:20:16.653Z,97.50
2019-01-30T15:22:18.506Z,97.60
2019-01-30T15:24:20.249Z,97.60
2019-01-30T15:26:22.114Z,97.70
2019-01-30T15:28:23.928Z,97.60
2019-01-30T15:30:34.115Z,97.70
2019-01-30T15:32:36.056Z,97.80
2019-01-30T15:34:37.782Z,97.80
2019-01-30T15:36:39.763Z,97.40
2019-01-30T15:38:41.771Z,97.50
2019-01-30T15:40:43.679Z,97.90
2019-01-30T15:42:49.352Z,97.80
2019-01-30T15:44:49.213Z,97.60
2019-01-30T15:46:53.634Z,97.90
2019-01-30T15:48:55.417Z,98.30
2019-01-30T15:50:57.223Z,98.30
2019-01-30T15:53:00.171Z,98.30
2019-01-30T15:55:02.094Z,98.30
2019-01-30T15:57:04.026Z,98.30
2019-01-30T15:59:08.722Z,98.30
2019-01-30T16:01:21.167Z,98.30
2019-01-30T16:03:22.887Z,98.30
2019-01-30T16:05:24.792Z,98.30
2019-01-30T16:07:26.652Z,98.30
2019-01-30T16:09:28.462Z,98.30
2019-01-30T16:11:30.284Z,98.30
2019-01-30T16:13:32.131Z,98.30
2019-01-30T16:15:37.378Z,98.30
2019-01-30T16:17:39.098Z,98.30
2019-01-30T16:19:40.828Z,98.30
2019-01-30T16:21:42.580Z,98.30
2019-01-30T16:23:44.474Z,98.30
2019-01-30T16:25:46.200Z,98.30
2019-01-30T16:27:48.042Z,98.30
2019-01-30T16:29:49.870Z,98.30
2019-01-30T16:31:51.782Z,98.30
2019-01-30T16:33:53.629Z,98.30
2019-01-30T16:35:56.495Z,98.30
2019-01-30T16:37:58.722Z,98.30
2019-01-30T16:40:00.555Z,98.30
2019-01-30T16:42:02.650Z,98.30
2019-01-30T16:44:04.635Z,98.30
2019-01-30T16:46:06.702Z,98.30
2019-01-30T16:48:08.879Z,98.30
2019-01-30T16:50:12.134Z,98.30
2019-01-30T16:52:14.218Z,98.30
2019-01-30T16:54:16.236Z,98.30
2019-01-30T16:56:18.001Z,98.30
2019-01-30T16:58:19.842Z,98.30
2019-01-30T17:00:26.650Z,98.30
2019-01-30T17:02:28.477Z,98.30
2019-01-30T17:04:30.191Z,98.30
2019-01-30T17:06:32.026Z,98.30
2019-01-30T17:08:33.871Z,98.30
2019-01-30T17:10:41.242Z,98.30
2019-01-30T17:12:43.265Z,98.30
2019-01-30T17:14:54.059Z,98.30
2019-01-30T17:16:55.768Z,98.30
2019-01-30T17:18:57.791Z,98.30
2019-01-30T17:21:01.941Z,98.30
2019-01-30T17:23:04.094Z,98.30
2019-01-30T17:25:06.403Z,98.30
2019-01-30T17:27:08.134Z,98.30
2019-01-30T17:29:12.662Z,98.30
2019-01-30T17:31:28.752Z,98.30
2019-01-30T17:33:30.755Z,98.30
2019-01-30T17:35:32.837Z,98.30
2019-01-30T17:37:34.566Z,98.30
2019-01-30T17:39:36.664Z,98.30
2019-01-30T17:41:38.503Z,98.30
2019-01-30T17:43:40.823Z,98.30
2019-01-30T17:45:42.756Z,98.30
2019-01-30T17:47:45.128Z,98.30
2019-01-30T17:49:47.390Z,98.30
2019-01-30T17:51:49.211Z,98.30
2019-01-30T17:53:51.262Z,98.30
2019-01-30T17:55:53.462Z,98.30
2019-01-30T17:57:55.576Z,98.30
2019-01-30T17:59:58.190Z,98.30
2019-01-30T18:02:01.992Z,98.30
2019-01-30T18:04:04.356Z,98.30
2019-01-30T18:06:06.953Z,98.30
2019-01-30T18:08:08.816Z,98.30
2019-01-30T18:10:10.832Z,98.30
2019-01-30T18:12:12.556Z,98.30
2019-01-30T18:14:14.296Z,98.30
2019-01-30T18:16:16.192Z,98.30
2019-01-30T18:18:18.145Z,98.30
2019-01-30T18:20:20.125Z,98.30
2019-01-30T18:22:21.879Z,98.30
2019-01-30T18:24:23.682Z,98.30
2019-01-30T18:26:25.616Z,98.30
2019-01-30T18:28:27.411Z,98.30
2019-01-30T18:30:29.279Z,98.30
2019-01-30T18:32:31.082Z,98.30
2019-01-30T18:34:32.919Z,98.30
2019-01-30T18:36:41.313Z,98.30
2019-01-30T18:38:38.426Z,98.30
2019-01-30T18:40:40.251Z,98.30
2019-01-30T18:42:42.587Z,98.30
2019-01-30T18:44:44.922Z,98.30
2019-01-30T18:46:46.699Z,98.30
2019-01-30T18:48:48.446Z,98.30
2019-01-30T18:50:50.407Z,98.30
2019-01-30T18:52:52.658Z,98.30
2019-01-30T18:54:54.387Z,98.30
2019-01-30T18:56:56.209Z,98.30
2019-01-30T18:58:57.959Z,98.30
2019-01-30T19:01:00.048Z,98.30
2019-01-30T19:03:04.596Z,98.30
2019-01-30T19:05:07.323Z,98.30
2019-01-30T19:07:09.057Z,98.30
2019-01-30T19:09:10.998Z,98.30
2019-01-30T19:11:12.729Z,98.30
2019-01-30T19:13:14.794Z,98.30
2019-01-30T19:15:18.451Z,98.30
2019-01-30T19:17:20.366Z,98.30
2019-01-30T19:19:22.536Z,98.30
2019-01-30T19:21:24.231Z,98.30
2019-01-30T19:23:26.418Z,98.30
2019-01-30T19:25:28.303Z,98.30
2019-01-30T19:27:30.086Z,98.30
2019-01-30T19:29:31.988Z,98.30
2019-01-30T19:31:33.860Z,98.30
2019-01-30T19:33:35.722Z,98.30
2019-01-30T19:35:37.451Z,98.30
2019-01-30T19:37:39.363Z,98.30
2019-01-30T19:39:41.267Z,98.30
2019-01-30T19:41:42.984Z,98.30
2019-01-30T19:43:44.699Z,98.30
2019-01-30T19:45:46.517Z,98.30
2019-01-30T19:47:48.454Z,98.30
2019-01-30T19:49:50.641Z,98.30
2019-01-30T19:51:52.407Z,98.30
2019-01-30T19:53:54.323Z,98.30
2019-01-30T19:55:56.054Z,98.30
2019-01-30T19:58:00.371Z,98.30
2019-01-30T20:00:03.231Z,98.30
2019-01-30T20:02:05.768Z,98.30
2019-01-30T20:04:08.431Z,98.30
2019-01-30T20:06:10.681Z,98.30
2019-01-30T20:08:12.601Z,98.30
2019-01-30T20:10:18.328Z,98.30
2019-01-30T20:12:20.271Z,98.30
2019-01-30T20:14:21.990Z,98.30
2019-01-30T20:16:23.715Z,98.30
2019-01-30T20:18:25.658Z,98.30
2019-01-30T20:20:27.672Z,98.30
2019-01-30T20:22:29.472Z,98.30
2019-01-30T20:24:31.195Z,98.30
2019-01-30T20:26:33.022Z,98.30
2019-01-30T20:28:34.959Z,98.30
2019-01-30T20:30:36.874Z,98.30
2019-01-30T20:32:38.790Z,98.30
2019-01-30T20:34:40.610Z,98.30
2019-01-30T20:37:02.601Z,98.30
2019-01-30T20:39:06.288Z,98.30
2019-01-30T20:41:08.014Z,98.30
2019-01-30T20:43:09.871Z,98.30
2019-01-30T20:45:11.995Z,98.30
2019-01-30T20:47:13.942Z,98.30
2019-01-30T20:49:17.912Z,98.30
2019-01-30T20:51:19.819Z,98.30
2019-01-30T20:53:21.646Z,98.30
2019-01-30T20:55:23.609Z,98.30
2019-01-30T20:57:25.454Z,98.30
2019-01-30T20:59:27.272Z,98.30
2019-01-30T21:01:29.023Z,98.30
2019-01-30T21:03:30.956Z,98.30
2019-01-30T21:05:32.861Z,98.30
2019-01-30T21:07:37.406Z,98.30
2019-01-30T21:09:38.408Z,98.30
2019-01-30T21:11:40.125Z,98.30
2019-01-30T21:13:41.935Z,98.30
2019-01-30T21:15:43.982Z,98.30
2019-01-30T21:17:48.022Z,98.30
2019-01-30T21:19:49.727Z,98.30
2019-01-30T21:21:51.814Z,98.30
2019-01-30T21:23:53.783Z,98.30
2019-01-30T21:25:55.508Z,98.30
2019-01-30T21:27:57.480Z,98.30
2019-01-30T21:29:59.667Z,98.30
2019-01-30T21:32:01.431Z,98.30
2019-01-30T21:34:03.570Z,98.30
2019-01-30T21:36:05.415Z,98.30
2019-01-30T21:38:07.233Z,98.30
2019-01-30T21:40:11.162Z,98.30
2019-01-30T21:42:12.883Z,98.30
2019-01-30T21:44:14.746Z,98.30
2019-01-30T21:46:16.846Z,98.30
2019-01-30T21:48:18.920Z,98.30
2019-01-30T21:50:21.348Z,98.30
2019-01-30T21:52:23.198Z,98.30
2019-01-30T21:54:25.022Z,98.30
2019-01-30T21:56:26.871Z,98.30
2019-01-30T21:58:28.654Z,98.30
2019-01-30T22:00:30.765Z,98.30
2019-01-30T22:02:32.581Z,98.30
2019-01-30T22:04:34.474Z,98.30
2019-01-30T22:06:36.352Z,98.30
2019-01-30T22:08:38.156Z,98.30
2019-01-30T22:10:39.883Z,98.30
2019-01-30T22:12:41.920Z,98.30
2019-01-30T22:14:43.632Z,98.30
2019-01-30T22:16:45.442Z,98.30
2019-01-30T22:18:47.166Z,98.30
2019-01-30T22:20:49.169Z,98.30
2019-01-30T22:22:51.274Z,98.30
2019-01-30T22:24:53.267Z,98.30
2019-01-30T22:26:55.118Z,98.30
2019-01-30T22:28:56.846Z,98.30
2019-01-30T22:30:58.554Z,98.30
2019-01-30T22:33:00.487Z,98.30
2019-01-30T22:35:02.354Z,98.30
2019-01-30T22:37:04.182Z,98.30
2019-01-30T22:39:07.251Z,98.30
2019-01-30T22:41:19.188Z,98.30
2019-01-30T22:43:21.124Z,98.30
2019-01-30T22:45:23.081Z,98.30
2019-01-30T22:47:24.870Z,98.30
2019-01-30T22:49:26.853Z,98.30
2019-01-30T22:51:28.786Z,98.30
2019-01-30T22:53:30.578Z,98.30
2019-01-30T22:55:32.464Z,98.30
2019-01-30T22:57:40.501Z,98.30
2019-01-30T22:59:42.218Z,98.30
2019-01-30T23:01:48.226Z,98.30
2019-01-30T23:04:27.495Z,98.30
2019-01-30T23:06:50.231Z,98.30
2019-01-30T23:09:01.494Z,98.30
2019-01-30T23:11:32.707Z,98.30
2019-01-30T23:13:53.149Z,98.30
2019-01-30T23:16:02.694Z,98.30
2019-01-30T23:18:18.571Z,98.30
2019-01-30T23:20:27.374Z,98.30
2019-01-30T23:22:56.764Z,98.30
2019-01-30T23:25:41.763Z,98.30
2019-01-30T23:27:56.202Z,98.30
2019-01-30T23:30:34.294Z,98.30
2019-01-30T23:33:20.771Z,98.30
2019-01-30T23:36:08.885Z,98.30
2019-01-30T23:39:05.419Z,98.30
2019-01-30T23:41:54.641Z,98.30
2019-01-30T23:44:15.915Z,98.30
2019-01-30T23:47:05.553Z,98.30
2019-01-30T23:49:41.199Z,98.30
2019-01-30T23:52:09.500Z,98.30
2019-01-30T23:54:44.610Z,98.30
2019-01-30T23:57:24.944Z,98.30
2019-01-30T23:59:48.083Z,98.30
